KCFD

Coulter Field Airport

Bryan, Texas, USA
METAR KCFD 231055Z AUTO 00000KT 5SM BR CLR 20/20 A3000 RMK AO2 T01960196
Observed Flight Rules
May-23 @ 10:55 UTC (22 minutes ago) Marginal Visual Flight Rules
Visibility Clouds Conditions
5 miles
  • Clear skies
  • Mist
Temperatures Readings
Current 20°C / 68°F
Dewpoint 20°C / 68°F
Humidity 100%
Altimeter 30" Hg
Pressure 1016 hPa
Elevation 112
METAR KCFD 231055Z AUTO 00000KT 5SM BR CLR 20/20 A3000 RMK AO2 T01960196
Observed Flight Rules
May-23 @ 10:55 UTC
(22 minutes ago)
MVFR
Clouds
  • Clear skies
Conditions
  • Mist
Temperature Dewpoint
20°C / 68°F 20°C / 68°F
Humidity Altimeter Pressure
100% 30" Hg 1016 hPa